Time;durP1;ratioP1;P1;durP2;ratioP2;P2;SDS_P1;SDS_P2;PMS_P1;PMS_P2;Temp;Humidity;BMP_temperature;BMP_pressure;BME280_temperature;BME280_humidity;BME280_pressure;Samples;Min_cycle;Max_cycle;Signal;HPM_P1;HPM_P2
2023/05/26 00:02:29;;;;;;;2.40;2.13;;;;;;;18.00;59.23;97192.53;10456081;28;20032;-32
2023/05/26 00:07:29;;;;;;;4.07;2.95;;;;;;;18.16;62.33;97193.53;10454677;28;20706;-31
2023/05/26 00:12:30;;;;;;;4.47;3.50;;;;;;;18.28;67.96;97193.63;10459967;28;20098;-33
2023/05/26 00:17:31;;;;;;;2.60;2.20;;;;;;;18.28;64.04;97197.03;10472583;28;20774;-32
2023/05/26 00:22:31;;;;;;;2.45;2.22;;;;;;;18.19;63.18;97198.63;10452881;28;20516;-32
2023/05/26 00:27:31;;;;;;;2.80;2.37;;;;;;;18.11;60.43;97192.63;10450015;28;20029;-31
2023/05/26 00:32:32;;;;;;;2.50;2.07;;;;;;;18.07;60.09;97201.88;10460337;28;20048;-32
2023/05/26 00:37:32;;;;;;;1.70;1.60;;;;;;;18.06;59.80;97196.78;10442498;28;20284;-32
2023/05/26 00:42:35;;;;;;;2.60;1.65;;;;;;;18.04;59.43;97194.28;10452411;28;20045;-32
2023/05/26 00:47:35;;;;;;;2.72;1.80;;;;;;;18.03;59.69;97189.19;10431567;28;20496;-33
2023/05/26 00:52:35;;;;;;;1.50;1.40;;;;;;;18.03;59.43;97181.56;10465290;28;20083;-31
2023/05/26 00:57:37;;;;;;;1.70;1.60;;;;;;;18.02;59.38;97179.88;10460067;28;20327;-32
2023/05/26 01:02:39;;;;;;;1.60;1.50;;;;;;;18.01;59.37;97183.25;10464009;28;20310;-32
2023/05/26 01:07:41;;;;;;;2.45;1.70;;;;;;;17.99;59.19;97178.16;10448984;28;20493;-31
2023/05/26 01:13:00;;;;;;;2.88;2.20;;;;;;;18.13;61.79;97173.22;10460095;28;20040;-32
2023/05/26 01:18:16;;;;;;;8.48;3.80;;;;;;;18.26;68.22;97175.03;10456070;28;20021;-32
2023/05/26 01:23:36;;;;;;;4.53;2.60;;;;;;;18.27;63.88;97176.72;10454258;28;20485;-32
2023/05/26 01:28:41;;;;;;;2.33;2.13;;;;;;;18.17;63.14;97185.09;10458953;28;20053;-34
2023/05/26 01:33:41;;;;;;;2.13;1.90;;;;;;;18.08;60.18;97195.16;10444188;28;20483;-36
2023/05/26 01:38:41;;;;;;;1.70;1.60;;;;;;;18.06;60.20;97185.00;10459875;28;20112;-33
2023/05/26 01:43:50;;;;;;;2.15;1.95;;;;;;;18.05;59.91;97182.44;10464185;28;20037;-32
2023/05/26 01:48:56;;;;;;;1.80;1.55;;;;;;;18.02;59.67;97179.88;10470965;28;20558;-32
2023/05/26 01:54:00;;;;;;;2.13;1.70;;;;;;;18.00;59.78;97186.63;10476000;28;20032;-32
2023/05/26 01:59:01;;;;;;;1.85;1.65;;;;;;;17.98;59.45;97184.06;10455465;28;20037;-32
2023/05/26 02:04:02;;;;;;;1.92;1.70;;;;;;;17.98;59.33;97178.16;10447102;28;20029;-31
2023/05/26 02:09:03;;;;;;;1.63;1.53;;;;;;;17.99;59.34;97184.94;10467168;28;20032;-31
2023/05/26 02:14:04;;;;;;;1.60;1.50;;;;;;;17.98;59.41;97190.84;10454335;28;20127;-31
2023/05/26 02:19:04;;;;;;;2.95;2.42;;;;;;;18.13;62.54;97183.34;10463332;28;20055;-32
2023/05/26 02:24:09;;;;;;;3.58;3.17;;;;;;;18.25;67.27;97184.31;10440506;28;20535;-31
2023/05/26 02:29:11;;;;;;;2.85;2.58;;;;;;;18.26;63.76;97180.09;10454709;28;20083;-32
2023/05/26 02:34:13;;;;;;;2.83;2.28;;;;;;;18.16;63.30;97183.41;10470695;28;20032;-31
2023/05/26 02:39:14;;;;;;;2.57;2.13;;;;;;;18.08;60.88;97179.94;10457044;28;20021;-32
2023/05/26 02:44:14;;;;;;;1.92;1.73;;;;;;;18.05;60.26;97174.81;10435860;28;20332;-32
2023/05/26 02:49:14;;;;;;;2.33;1.77;;;;;;;18.03;59.69;97166.38;10445039;28;20527;-32
2023/05/26 02:54:15;;;;;;;2.20;2.00;;;;;;;18.01;59.86;97163.00;10453702;28;20298;-32
2023/05/26 02:59:15;;;;;;;1.30;1.20;;;;;;;17.99;59.73;97169.72;10452955;28;20041;-32
2023/05/26 03:04:15;;;;;;;2.27;1.87;;;;;;;17.98;59.54;97181.53;10438357;28;20036;-32
2023/05/26 03:09:16;;;;;;;1.75;1.65;;;;;;;17.98;59.40;97181.53;10446670;28;20035;-31
2023/05/26 03:14:17;;;;;;;2.33;2.13;;;;;;;17.98;59.37;97183.25;10452539;28;20037;-33
2023/05/26 03:19:18;;;;;;;1.90;1.52;;;;;;;17.97;59.25;97172.25;10468532;28;20021;-33
2023/05/26 03:24:18;;;;;;;2.20;2.00;;;;;;;18.08;61.69;97174.88;10449013;28;20029;-32
2023/05/26 03:29:20;;;;;;;3.35;3.05;;;;;;;18.21;67.39;97166.53;10433854;28;20041;-32
2023/05/26 03:34:21;;;;;;;3.20;2.77;;;;;;;18.24;64.06;97153.91;10461011;28;20041;-32
2023/05/26 03:39:22;;;;;;;2.05;1.80;;;;;;;18.16;62.92;97163.94;10465392;28;20501;-32
2023/05/26 03:44:23;;;;;;;1.92;1.83;;;;;;;18.07;61.17;97163.03;10451226;28;20039;-32
2023/05/26 03:49:23;;;;;;;1.65;1.55;;;;;;;18.03;60.21;97161.31;10468055;28;20033;-31
2023/05/26 03:54:23;;;;;;;1.60;1.50;;;;;;;18.02;59.98;97164.69;10433329;28;20120;-32
2023/05/26 03:59:24;;;;;;;2.00;1.40;;;;;;;18.00;59.79;97171.44;10432673;28;20120;-33
2023/05/26 04:04:24;;;;;;;1.83;1.70;;;;;;;17.99;59.38;97170.56;10457529;28;20098;-33
2023/05/26 04:09:25;;;;;;;1.60;1.30;;;;;;;17.99;59.31;97174.81;10447538;28;20131;-33
2023/05/26 04:14:26;;;;;;;1.63;1.52;;;;;;;17.98;59.48;97175.63;10433444;28;20064;-31
2023/05/26 04:19:26;;;;;;;1.40;1.30;;;;;;;17.98;59.31;97170.56;10465996;28;20056;-31
2023/05/26 04:24:28;;;;;;;1.52;1.42;;;;;;;17.99;59.76;97174.81;10447434;28;20037;-31
2023/05/26 04:29:29;;;;;;;2.60;2.40;;;;;;;18.04;61.26;97174.00;10431330;28;20029;-32
2023/05/26 04:34:49;;;;;;;3.83;3.42;;;;;;;18.18;66.32;97167.34;10461795;28;20032;-32
2023/05/26 04:39:53;;;;;;;2.40;2.13;;;;;;;18.24;61.81;97177.53;10437652;28;20065;-32
2023/05/26 04:44:54;;;;;;;8.65;4.60;;;;;;;18.15;62.20;97174.09;10464989;28;20032;-30
2023/05/26 04:49:55;;;;;;;5.05;3.30;;;;;;;18.17;62.84;97177.50;10444522;28;20118;-32
2023/05/26 04:54:58;;;;;;;6.95;4.53;;;;;;;18.05;61.32;97179.91;10431337;28;20063;-31
2023/05/26 04:59:59;;;;;;;5.15;3.88;;;;;;;18.01;60.58;97189.16;10433069;28;20029;-32
2023/05/26 05:04:59;;;;;;;3.42;2.55;;;;;;;18.01;60.28;97193.38;10454400;28;20029;-33
2023/05/26 05:10:00;;;;;;;3.22;2.70;;;;;;;18.00;59.87;97186.63;10452192;28;21038;-32
2023/05/26 05:15:02;;;;;;;2.47;1.67;;;;;;;17.97;59.81;97192.50;10455513;28;20112;-31
2023/05/26 05:20:05;;;;;;;3.83;2.60;;;;;;;17.95;59.53;97199.25;10462921;28;20025;-32
2023/05/26 05:25:06;;;;;;;2.40;2.10;;;;;;;17.85;59.46;97181.41;10463591;28;20028;-33
2023/05/26 05:30:07;;;;;;;5.78;2.67;;;;;;;17.99;59.84;97202.66;10445223;28;20033;-32
2023/05/26 05:35:10;;;;;;;10.82;4.90;;;;;;;18.08;64.02;97200.22;10450697;28;20032;-33
2023/05/26 05:40:11;;;;;;;7.55;4.75;;;;;;;18.20;66.10;97207.91;10451618;28;20025;-32
2023/05/26 05:45:11;;;;;;;7.88;4.35;;;;;;;18.22;62.77;97198.63;10437999;28;20029;-31
2023/05/26 05:50:47;;;;;;;4.20;2.72;;;;;;;18.12;62.43;97212.06;10380764;28;20041;-31
2023/05/26 05:55:48;;;;;;;2.70;2.28;;;;;;;18.04;60.36;97213.66;10440707;28;20051;-31
2023/05/26 06:00:49;;;;;;;5.97;2.88;;;;;;;18.03;60.21;97211.97;10446199;28;20040;-32
2023/05/26 06:05:49;;;;;;;4.68;3.25;;;;;;;18.01;60.17;97213.66;10447701;28;20029;-30
2023/05/26 06:10:50;;;;;;;8.87;3.07;;;;;;;17.99;59.88;97212.81;10463991;28;20036;-32
2023/05/26 06:15:50;;;;;;;3.80;2.65;;;;;;;17.97;59.75;97217.84;10461263;28;20066;-31
2023/05/26 06:20:53;;;;;;;6.20;2.60;;;;;;;17.98;59.81;97223.78;10447212;28;20622;-31
2023/05/26 06:25:53;;;;;;;3.23;1.97;;;;;;;17.97;59.75;97216.97;10454658;28;20040;-31
2023/05/26 06:30:55;;;;;;;4.15;2.33;;;;;;;17.96;59.55;97225.41;10437338;28;20036;-32
2023/05/26 06:36:15;;;;;;;2.20;2.00;;;;;;;17.94;59.51;97227.97;10436209;28;20036;-32
2023/05/26 06:41:16;;;;;;;6.07;3.63;;;;;;;18.11;65.47;97223.03;10436463;28;20025;-32
2023/05/26 06:46:16;;;;;;;7.13;3.73;;;;;;;18.22;65.55;97234.13;10443857;28;20043;-32
2023/05/26 06:51:16;;;;;;;4.97;2.83;;;;;;;18.23;61.81;97228.19;10462588;28;20560;-32
2023/05/26 06:56:19;;;;;;;3.97;2.38;;;;;;;18.14;61.61;97230.66;10440873;28;20025;-31
2023/05/26 07:01:20;;;;;;;2.92;2.00;;;;;;;18.06;60.57;97229.72;10461164;28;20028;-31
2023/05/26 07:06:20;;;;;;;3.10;2.80;;;;;;;18.03;60.27;97232.25;10435053;28;20043;-31
2023/05/26 07:11:25;;;;;;;2.90;2.60;;;;;;;18.01;59.98;97239.00;10454370;28;20467;-32
2023/05/26 07:16:28;;;;;;;4.45;2.10;;;;;;;17.98;59.89;97244.88;10435306;28;20614;-31
2023/05/26 07:21:29;;;;;;;2.75;2.20;;;;;;;17.89;59.81;97233.78;10465896;28;20185;-31
2023/05/26 07:26:31;;;;;;;2.85;2.08;;;;;;;17.98;59.89;97251.63;10449571;28;20409;-31
2023/05/26 07:31:33;;;;;;;3.22;2.60;;;;;;;17.97;59.83;97247.38;10451564;28;20040;-32
2023/05/26 07:36:34;;;;;;;6.18;2.00;;;;;;;17.97;59.89;97249.91;10455818;28;20079;-32
2023/05/26 07:41:35;;;;;;;2.22;2.03;;;;;;;18.03;59.50;97252.50;10455380;28;20036;-32
2023/05/26 07:46:36;;;;;;;5.32;2.92;;;;;;;18.17;62.92;97243.38;10472805;28;20036;-32
2023/05/26 07:51:36;;;;;;;7.53;3.80;;;;;;;18.27;66.24;97242.63;10479318;28;20135;-32
2023/05/26 07:56:36;;;;;;;10.73;4.00;;;;;;;18.27;63.14;97240.94;10464931;28;20024;-32
2023/05/26 08:01:37;;;;;;;9.20;2.70;;;;;;;18.22;60.67;97246.78;10474735;28;20337;-31
2023/05/26 08:06:37;;;;;;;8.03;2.60;;;;;;;18.21;60.24;97247.63;10468181;28;20032;-31
2023/05/26 08:11:38;;;;;;;9.27;2.38;;;;;;;18.19;60.02;97249.31;10472487;28;20302;-32
2023/05/26 08:16:38;;;;;;;5.57;2.20;;;;;;;18.18;60.02;97247.59;10461177;28;20325;-31
2023/05/26 08:21:38;;;;;;;7.30;2.80;;;;;;;18.16;59.85;97251.81;10467513;28;20166;-32
2023/05/26 08:26:39;;;;;;;7.83;3.60;;;;;;;18.15;59.85;97245.06;10468727;28;20040;-32
2023/05/26 08:31:39;;;;;;;6.93;3.03;;;;;;;18.14;59.82;97245.84;10473280;28;20035;-32
2023/05/26 08:36:39;;;;;;;6.30;2.80;;;;;;;18.16;59.63;97255.19;10462501;28;20286;-32
2023/05/26 08:41:48;;;;;;;7.73;3.07;;;;;;;18.15;59.95;97245.06;10478221;28;20770;-33
2023/05/26 08:46:55;;;;;;;8.02;3.92;;;;;;;18.12;59.76;97230.66;10467664;28;20037;-31
2023/05/26 08:52:00;;;;;;;;;;;;;;;18.23;66.15;97241.75;10461244;28;20032;-32
2023/05/26 08:57:02;;;;;;;7.18;3.75;;;;;;;18.32;65.84;97238.47;10472587;28;19924;-32
2023/05/26 09:02:03;;;;;;;7.95;3.67;;;;;;;18.30;64.92;97230.00;10470105;28;20098;-32
2023/05/26 09:07:08;;;;;;;8.65;4.35;;;;;;;18.22;60.65;97229.03;10472043;28;20024;-31
2023/05/26 09:12:10;;;;;;;16.40;5.03;;;;;;;18.20;62.08;97245.94;10461784;28;20090;-32
2023/05/26 09:17:12;;;;;;;18.95;5.13;;;;;;;18.19;61.61;97237.50;10459571;28;20037;-32
2023/05/26 09:22:13;;;;;;;13.25;4.70;;;;;;;18.19;60.95;97234.97;10449670;28;20037;-31
2023/05/26 09:27:18;;;;;;;11.98;4.70;;;;;;;18.18;60.87;97237.47;10464521;28;20470;-32
2023/05/26 09:32:19;;;;;;;13.07;4.68;;;;;;;18.20;61.80;97240.84;10458613;28;20416;-32
2023/05/26 09:37:28;;;;;;;8.85;4.10;;;;;;;18.20;61.41;97239.19;10469214;28;20028;-31
2023/05/26 09:42:29;;;;;;;14.38;4.22;;;;;;;18.21;60.54;97245.09;10463044;28;20045;-33
2023/05/26 09:47:34;;;;;;;6.72;4.22;;;;;;;18.20;60.43;97244.25;10454428;28;20488;-31
2023/05/26 09:52:36;;;;;;;14.02;4.78;;;;;;;18.20;60.37;97245.94;10462030;28;20072;-32
2023/05/26 09:57:38;;;;;;;12.95;4.80;;;;;;;18.27;65.98;97237.56;10469426;28;20036;-29
2023/05/26 10:02:40;;;;;;;11.63;4.80;;;;;;;18.38;66.77;97241.06;10465054;28;20101;-32
2023/05/26 10:07:42;;;;;;;8.88;4.50;;;;;;;18.35;63.79;97239.34;10456344;28;20048;-31
2023/05/26 10:12:43;;;;;;;6.45;4.32;;;;;;;18.30;60.79;97238.47;10468044;28;20106;-32
2023/05/26 10:17:44;;;;;;;7.47;4.55;;;;;;;18.25;60.85;97241.75;10457352;28;20064;-32
2023/05/26 10:22:52;;;;;;;9.00;4.53;;;;;;;18.22;60.79;97239.19;10456302;28;20263;-32
2023/05/26 10:27:58;;;;;;;6.75;4.55;;;;;;;18.21;60.89;97232.41;10466514;28;20035;-32
2023/05/26 10:33:09;;;;;;;10.20;6.10;;;;;;;18.21;60.90;97232.41;10463000;28;20469;-33
2023/05/26 10:38:11;;;;;;;12.18;6.88;;;;;;;18.21;60.79;97229.88;10464443;28;20453;-32
2023/05/26 10:43:26;;;;;;;11.65;6.50;;;;;;;18.17;60.64;97215.50;10458516;28;20493;-33
2023/05/26 10:48:35;;;;;;;7.93;4.85;;;;;;;18.18;60.57;97225.63;10458094;28;20032;-32
2023/05/26 10:53:45;;;;;;;7.85;5.68;;;;;;;18.18;60.76;97220.56;10466359;28;20063;-32
2023/05/26 10:58:50;;;;;;;9.05;4.78;;;;;;;18.19;60.94;97218.88;10460835;28;20393;-32
2023/05/26 11:04:08;;;;;;;14.27;5.57;;;;;;;18.36;66.60;97209.78;10464702;28;20036;-32
2023/05/26 11:09:12;;;;;;;13.70;4.50;;;;;;;18.44;67.06;97210.69;10470143;28;20029;-32
2023/05/26 11:14:13;;;;;;;12.13;4.90;;;;;;;18.36;63.59;97207.25;10478060;28;20065;-31
2023/05/26 11:19:14;;;;;;;12.43;4.95;;;;;;;18.27;60.95;97202.06;10476137;28;20185;-31
2023/05/26 11:24:15;;;;;;;7.68;4.68;;;;;;;18.24;61.14;97200.34;10480293;28;20040;-31
2023/05/26 11:29:16;;;;;;;12.15;4.63;;;;;;;18.25;61.66;97183.47;10473854;28;20033;-32
2023/05/26 11:34:17;;;;;;;11.73;4.20;;;;;;;18.25;61.15;97186.84;10471174;28;20109;-32
2023/05/26 11:39:17;;;;;;;8.02;5.03;;;;;;;18.30;61.56;97186.91;10463286;28;20078;-34
2023/05/26 11:44:18;;;;;;;14.83;5.13;;;;;;;18.37;64.79;97178.50;10466000;28;20029;-31
2023/05/26 11:49:19;;;;;;;8.75;5.28;;;;;;;18.35;61.72;97181.03;10468630;28;20029;-31
2023/05/26 11:54:20;;;;;;;12.98;4.45;;;;;;;18.35;61.50;97175.13;10475977;28;20062;-31
2023/05/26 11:59:21;;;;;;;9.05;5.35;;;;;;;18.35;61.49;97175.97;10451476;28;20053;-32
2023/05/26 12:04:27;;;;;;;11.38;6.82;;;;;;;18.39;63.52;97166.69;10466580;28;20143;-32
2023/05/26 12:09:28;;;;;;;13.27;8.10;;;;;;;18.49;68.15;97168.47;10472792;28;20412;-32
2023/05/26 12:14:28;;;;;;;9.25;6.55;;;;;;;18.49;63.94;97174.38;10467919;28;20040;-32
2023/05/26 12:19:30;;;;;;;10.88;5.57;;;;;;;18.43;62.13;97163.38;10463286;28;20147;-31
2023/05/26 12:24:36;;;;;;;10.60;5.68;;;;;;;18.41;62.19;97159.97;10460117;28;20400;-32
2023/05/26 12:29:43;;;;;;;8.23;5.78;;;;;;;18.39;62.09;97154.00;10472485;28;20476;-32
2023/05/26 12:34:44;;;;;;;13.27;7.50;;;;;;;18.36;62.03;97146.41;10481895;28;20036;-32
2023/05/26 12:39:45;;;;;;;17.15;9.18;;;;;;;18.36;62.03;97136.25;10461551;28;20024;-31
2023/05/26 12:44:45;;;;;;;13.87;7.10;;;;;;;18.36;61.72;97139.66;10466741;28;20033;-32
2023/05/26 12:49:45;;;;;;;10.57;6.73;;;;;;;18.34;63.07;97143.00;10462640;28;20033;-33
2023/05/26 12:54:46;;;;;;;14.65;7.35;;;;;;;18.36;63.24;97146.41;10478030;28;20040;-33
2023/05/26 12:59:46;;;;;;;12.33;7.80;;;;;;;18.35;64.05;97137.09;10462403;28;20025;-32
2023/05/26 13:04:46;;;;;;;11.67;7.00;;;;;;;18.32;63.63;97125.25;10466376;28;20119;-32
2023/05/26 13:09:47;;;;;;;12.33;7.90;;;;;;;18.48;65.89;97133.78;10464498;28;20033;-32
2023/05/26 13:14:47;;;;;;;13.48;7.15;;;;;;;18.58;66.62;97136.41;10478005;28;20035;-31
2023/05/26 13:19:48;;;;;;;10.77;7.50;;;;;;;18.55;64.97;97131.34;10471002;28;20055;-31
2023/05/26 13:24:48;;;;;;;12.00;7.20;;;;;;;18.44;64.00;97129.56;10491285;28;20127;-33
2023/05/26 13:29:48;;;;;;;12.67;7.13;;;;;;;18.40;65.01;97135.47;10469775;28;20037;-31
2023/05/26 13:34:49;;;;;;;16.55;7.10;;;;;;;18.35;64.02;97124.44;10463558;28;20036;-31
2023/05/26 13:39:49;;;;;;;11.67;6.27;;;;;;;18.34;63.61;97132.88;10472843;28;20045;-32
2023/05/26 13:44:50;;;;;;;12.20;7.00;;;;;;;18.29;63.63;97129.41;10456053;28;20299;-32
2023/05/26 13:49:50;;;;;;;7.65;5.80;;;;;;;18.29;63.46;97127.78;10456092;28;20547;-32
2023/05/26 13:54:50;;;;;;;8.45;5.38;;;;;;;18.27;63.34;97123.50;10471860;28;20040;-32
2023/05/26 13:59:51;;;;;;;8.40;5.50;;;;;;;18.29;63.34;97124.34;10455332;28;20029;-31
2023/05/26 14:04:52;;;;;;;9.77;5.63;;;;;;;18.26;63.05;97120.09;10458378;28;20029;-33
2023/05/26 14:09:52;;;;;;;9.60;5.57;;;;;;;18.26;63.49;97116.72;10471277;28;20033;-31
2023/05/26 14:14:52;;;;;;;6.50;5.30;;;;;;;18.46;65.43;97115.19;10455368;28;20280;-31
2023/05/26 14:19:53;;;;;;;10.63;5.87;;;;;;;18.56;66.08;97120.34;10463939;28;20663;-32
2023/05/26 14:24:53;;;;;;;8.95;5.07;;;;;;;18.49;64.59;97113.53;10471811;28;20033;-33
2023/05/26 14:29:57;;;;;;;8.80;4.80;;;;;;;18.37;63.16;97108.41;10454539;28;20064;-32
2023/05/26 14:34:57;;;;;;;7.85;5.28;;;;;;;18.32;63.07;97114.28;10465873;28;20037;-32
2023/05/26 14:39:58;;;;;;;7.30;5.87;;;;;;;18.29;63.24;97099.91;10459088;28;20025;-32
2023/05/26 14:44:58;;;;;;;7.15;4.43;;;;;;;18.28;63.12;97107.44;10454996;28;20516;-31
2023/05/26 14:49:59;;;;;;;7.65;4.82;;;;;;;18.27;63.12;97105.75;10456827;28;20059;-32
2023/05/26 14:55:00;;;;;;;5.10;4.60;;;;;;;18.24;62.85;97095.59;10462385;28;20037;-32
2023/05/26 15:00:00;;;;;;;5.13;4.50;;;;;;;18.25;62.64;97109.97;10453300;28;20688;-32
2023/05/26 15:05:01;;;;;;;7.75;6.07;;;;;;;18.26;63.42;97109.13;10464270;28;20427;-31
2023/05/26 15:10:02;;;;;;;7.67;5.57;;;;;;;18.28;63.26;97097.31;10458814;28;20044;-33
2023/05/26 15:15:03;;;;;;;8.60;5.60;;;;;;;18.35;65.45;97096.53;10460722;28;20552;-32
2023/05/26 15:20:05;;;;;;;8.32;5.78;;;;;;;18.52;66.12;97093.28;10459423;28;20107;-31
2023/05/26 15:25:05;;;;;;;7.70;5.63;;;;;;;18.51;65.51;97091.56;10452559;28;20048;-36
2023/05/26 15:30:06;;;;;;;6.80;4.97;;;;;;;18.42;65.25;97090.69;10460434;28;20037;-32
2023/05/26 15:35:07;;;;;;;11.93;6.50;;;;;;;18.39;64.40;97091.50;10452138;28;20565;-32
2023/05/26 15:40:08;;;;;;;11.45;6.03;;;;;;;18.34;63.02;97088.09;10451953;28;20035;-31
2023/05/26 15:45:09;;;;;;;4.90;3.92;;;;;;;18.30;63.06;97090.59;10471089;28;20036;-32
2023/05/26 15:50:12;;;;;;;5.20;4.05;;;;;;;18.27;63.09;97082.94;10460804;28;20037;-32
2023/05/26 15:55:12;;;;;;;6.57;4.18;;;;;;;18.26;62.79;97078.72;10435650;28;20511;-32
2023/05/26 16:00:13;;;;;;;4.47;3.90;;;;;;;18.26;62.82;97078.72;10462025;28;20020;-32
2023/05/26 16:05:14;;;;;;;7.07;4.82;;;;;;;18.23;62.51;97078.69;10454808;28;20064;-32
2023/05/26 16:10:15;;;;;;;5.27;3.63;;;;;;;18.23;62.44;97078.69;10460702;28;20504;-31
2023/05/26 16:15:15;;;;;;;4.72;4.32;;;;;;;18.23;62.28;97076.13;10451440;28;20093;-32
2023/05/26 16:20:15;;;;;;;6.27;4.57;;;;;;;18.44;63.80;97073.78;10463761;28;20077;-32
2023/05/26 16:25:16;;;;;;;8.33;5.30;;;;;;;18.55;64.81;97062.00;10464679;28;20040;-32
2023/05/26 16:30:17;;;;;;;10.70;5.50;;;;;;;18.50;64.00;97069.59;10453120;28;20116;-31
2023/05/26 16:35:18;;;;;;;9.88;5.22;;;;;;;18.39;64.47;97075.44;10459848;28;20040;-32
2023/05/26 16:40:18;;;;;;;10.40;3.97;;;;;;;18.33;62.52;97070.34;10458513;28;20489;-32
2023/05/26 16:45:19;;;;;;;14.63;4.57;;;;;;;18.33;63.57;97068.66;10450931;28;20039;-32
2023/05/26 16:50:19;;;;;;;11.27;3.83;;;;;;;18.31;63.30;97072.00;10449835;28;20025;-33
2023/05/26 16:55:20;;;;;;;6.57;4.00;;;;;;;18.28;62.03;97071.97;10457334;28;20063;-33
2023/05/26 17:00:21;;;;;;;7.65;3.38;;;;;;;18.28;61.96;97082.09;10463467;28;20025;-33
2023/05/26 17:05:21;;;;;;;6.28;3.30;;;;;;;18.26;62.19;97078.72;10471824;28;20110;-32
2023/05/26 17:10:22;;;;;;;5.60;3.25;;;;;;;18.25;62.02;97088.00;10463959;28;20040;-32
2023/05/26 17:15:22;;;;;;;5.47;3.88;;;;;;;18.35;63.71;97086.41;10479287;28;20167;-30
2023/05/26 17:20:22;;;;;;;10.13;4.57;;;;;;;18.55;64.35;97083.16;10478690;28;20029;-31
2023/05/26 17:25:23;;;;;;;10.52;4.15;;;;;;;18.62;63.58;97089.09;10463534;28;20120;-34
2023/05/26 17:30:23;;;;;;;8.27;4.17;;;;;;;18.53;63.39;97083.97;10468374;28;20047;-34
2023/05/26 17:35:25;;;;;;;4.97;3.80;;;;;;;18.45;63.05;97095.75;10480904;28;20043;-34
2023/05/26 17:40:26;;;;;;;6.70;4.32;;;;;;;18.38;62.63;97099.09;10462362;28;20295;-33
2023/05/26 17:45:27;;;;;;;7.20;4.67;;;;;;;18.33;62.63;97096.53;10460651;28;20048;-33
2023/05/26 17:50:28;;;;;;;5.82;3.90;;;;;;;18.31;62.40;97102.41;10470691;28;20298;-32
2023/05/26 17:55:28;;;;;;;5.65;3.47;;;;;;;18.28;62.05;97112.50;10470696;28;20048;-31
2023/05/26 18:00:29;;;;;;;5.43;3.33;;;;;;;18.29;62.21;97109.13;10480971;28;20507;-32
2023/05/26 18:05:29;;;;;;;6.65;4.22;;;;;;;18.28;62.15;97113.38;10493843;28;20029;-32
2023/05/26 18:10:30;;;;;;;8.70;4.73;;;;;;;18.32;62.62;97119.34;10459518;28;20433;-32
2023/05/26 18:15:31;;;;;;;5.07;3.65;;;;;;;18.28;61.91;97118.44;10465897;28;20028;-32
2023/05/26 18:20:34;;;;;;;7.43;4.28;;;;;;;18.43;64.13;97117.72;10477207;28;20408;-31
2023/05/26 18:25:34;;;;;;;8.30;3.88;;;;;;;18.62;63.96;97124.59;10464801;28;20680;-31
2023/05/26 18:30:36;;;;;;;13.48;5.15;;;;;;;18.43;64.11;97123.63;10463845;28;20083;-32
2023/05/26 18:35:36;;;;;;;8.20;3.83;;;;;;;18.45;63.69;97126.19;10455078;28;20063;-32
2023/05/26 18:40:36;;;;;;;5.73;3.33;;;;;;;18.30;63.40;97126.94;10465466;28;20112;-32
2023/05/26 18:45:37;;;;;;;9.10;4.50;;;;;;;18.36;63.63;97134.59;10456781;28;20033;-32
2023/05/26 18:50:37;;;;;;;6.53;3.53;;;;;;;18.32;62.91;97132.84;10458255;28;20045;-33
2023/05/26 18:55:37;;;;;;;9.18;3.80;;;;;;;18.29;62.66;97130.31;10461449;28;20040;-32
2023/05/26 19:00:38;;;;;;;12.03;4.50;;;;;;;18.29;62.26;97145.53;10451507;28;20037;-31
2023/05/26 19:05:39;;;;;;;5.22;4.63;;;;;;;18.31;62.22;97148.03;10469762;28;20038;-32
2023/05/26 19:10:39;;;;;;;8.07;4.27;;;;;;;18.29;62.40;97149.69;10464588;28;20095;-31
2023/05/26 19:15:42;;;;;;;5.65;3.28;;;;;;;18.31;62.24;97148.91;10471542;28;20123;-32
2023/05/26 19:20:42;;;;;;;4.70;3.13;;;;;;;18.29;61.86;97157.28;10473667;28;20036;-33
2023/05/26 19:25:42;;;;;;;5.90;3.70;;;;;;;18.42;64.05;97164.19;10465623;28;20036;-33
2023/05/26 19:30:43;;;;;;;10.32;6.30;;;;;;;18.54;66.04;97161.75;10470705;28;20036;-32
2023/05/26 19:35:43;;;;;;;8.57;4.40;;;;;;;18.60;64.43;97161.78;10470353;28;20115;-33
2023/05/26 19:40:44;;;;;;;7.87;3.70;;;;;;;18.51;63.84;97164.25;10456592;28;20035;-32
2023/05/26 19:45:44;;;;;;;7.13;4.25;;;;;;;18.40;62.97;97171.78;10475804;28;20036;-33
2023/05/26 19:50:45;;;;;;;5.47;3.35;;;;;;;18.35;62.32;97175.13;10469015;28;20051;-32
2023/05/26 19:55:45;;;;;;;7.50;3.78;;;;;;;18.31;62.17;97184.38;10467786;28;20523;-35
2023/05/26 20:00:46;;;;;;;8.73;4.50;;;;;;;18.31;62.67;97191.13;10473089;28;20064;-33
2023/05/26 20:05:46;;;;;;;5.20;3.83;;;;;;;18.29;62.25;97190.25;10476443;28;20119;-34
2023/05/26 20:10:47;;;;;;;6.70;3.60;;;;;;;18.30;62.31;97197.91;10473824;28;20047;-34
2023/05/26 20:15:48;;;;;;;5.50;3.33;;;;;;;18.29;62.02;97195.31;10455699;28;20033;-35
2023/05/26 20:20:50;;;;;;;6.22;3.78;;;;;;;18.28;62.11;97194.47;10461979;28;20278;-33
2023/05/26 20:25:51;;;;;;;4.32;3.45;;;;;;;18.28;61.95;97196.16;10470437;28;20036;-33
2023/05/26 20:30:51;;;;;;;10.80;4.57;;;;;;;18.48;63.86;97204.78;10463570;28;20377;-33
2023/05/26 20:35:52;;;;;;;13.23;4.63;;;;;;;18.64;65.00;97199.00;10467746;28;20110;-33
2023/05/26 20:40:52;;;;;;;6.07;3.60;;;;;;;18.63;63.32;97197.31;10483006;28;20033;-33
2023/05/26 20:45:53;;;;;;;6.27;3.80;;;;;;;18.54;64.46;97213.31;10476415;28;20291;-33
2023/05/26 20:50:54;;;;;;;12.23;4.53;;;;;;;18.46;64.17;97209.88;10490538;28;20044;-33
2023/05/26 20:55:56;;;;;;;11.93;4.63;;;;;;;18.43;62.95;97219.97;10480154;28;20040;-33
2023/05/26 21:00:57;;;;;;;13.30;3.67;;;;;;;18.36;62.93;97210.63;10477403;28;20706;-33
2023/05/26 21:05:57;;;;;;;11.53;4.60;;;;;;;18.41;64.02;97201.38;10464718;28;20078;-34
2023/05/26 21:10:57;;;;;;;11.07;4.93;;;;;;;18.61;63.78;97214.19;10471178;28;20066;-33
2023/05/26 21:15:58;;;;;;;6.13;3.53;;;;;;;18.63;62.70;97207.44;10489807;28;20032;-35
2023/05/26 21:20:58;;;;;;;7.53;4.43;;;;;;;18.52;63.08;97209.06;10476378;28;20032;-34
2023/05/26 21:25:59;;;;;;;7.33;3.87;;;;;;;18.40;61.73;97211.53;10480503;28;20047;-33
2023/05/26 21:30:59;;;;;;;4.45;3.58;;;;;;;18.37;61.72;97208.94;10489427;28;20282;-35
2023/05/26 21:35:59;;;;;;;6.00;3.13;;;;;;;18.36;61.85;97222.44;10471856;28;20126;-33
2023/05/26 21:41:00;;;;;;;5.17;3.27;;;;;;;18.34;61.38;97219.91;10470074;28;20352;-34
2023/05/26 21:46:00;;;;;;;6.00;2.90;;;;;;;18.27;61.04;97222.34;10486181;28;20299;-33
2023/05/26 21:51:00;;;;;;;5.90;3.20;;;;;;;18.31;61.08;97213.94;10495421;28;20036;-33
2023/05/26 21:56:01;;;;;;;5.07;3.13;;;;;;;18.25;60.98;97203.75;10492172;28;20024;-33
2023/05/26 22:01:01;;;;;;;6.65;3.65;;;;;;;18.45;63.30;97207.31;10474674;28;20294;-34
2023/05/26 22:06:02;;;;;;;4.90;3.10;;;;;;;18.63;62.93;97207.44;10494790;28;20043;-33
2023/05/26 22:11:02;;;;;;;5.97;3.28;;;;;;;18.59;62.35;97213.34;10483809;28;20125;-33
2023/05/26 22:16:03;;;;;;;4.73;3.00;;;;;;;18.45;62.03;97208.19;10496138;28;20046;-33
2023/05/26 22:21:03;;;;;;;5.30;3.42;;;;;;;18.24;61.22;97196.97;10495270;28;20790;-33
2023/05/26 22:26:03;;;;;;;4.18;3.78;;;;;;;18.24;61.21;97204.59;10494647;28;20512;-33
2023/05/26 22:31:04;;;;;;;3.00;2.70;;;;;;;18.29;61.10;97206.34;10494943;28;20538;-34
2023/05/26 22:36:05;;;;;;;5.00;2.90;;;;;;;18.27;61.17;97210.53;10486866;28;20044;-34
2023/05/26 22:41:06;;;;;;;3.92;2.45;;;;;;;18.26;61.07;97211.34;10494546;28;20032;-33
2023/05/26 22:46:06;;;;;;;3.00;2.73;;;;;;;18.26;61.00;97215.56;10494070;28;20044;-31
2023/05/26 22:51:06;;;;;;;3.10;2.47;;;;;;;18.23;60.95;97208.78;10494866;28;20074;-31
2023/05/26 22:56:07;;;;;;;3.50;2.40;;;;;;;18.28;62.49;97203.75;10484529;28;20036;-31
2023/05/26 23:01:07;;;;;;;5.33;3.30;;;;;;;18.51;63.51;97209.91;10493730;28;20035;-31
2023/05/26 23:06:08;;;;;;;4.53;3.57;;;;;;;18.62;62.84;97201.53;10485988;28;20032;-32
2023/05/26 23:11:09;;;;;;;3.13;2.83;;;;;;;18.51;62.76;97198.06;10492892;28;20463;-31
2023/05/26 23:16:09;;;;;;;4.43;2.60;;;;;;;18.40;62.14;97198.84;10483084;28;20447;-30
2023/05/26 23:21:09;;;;;;;3.05;2.75;;;;;;;18.34;61.26;97193.72;10492215;28;20678;-31